Time;durP1;ratioP1;P1;durP2;ratioP2;P2;SDS_P1;SDS_P2;PMS_P1;PMS_P2;Temp;Humidity;BMP_temperature;BMP_pressure;BME280_temperature;BME280_humidity;BME280_pressure;Samples;Min_cycle;Max_cycle;Signal;HPM_P1;HPM_P2
2023/01/28 00:01:41;;;;;;;19.98;11.02;;;2.30;99.90;;;1.25;100.00;102436.53;5121910;23;20083;-73
2023/01/28 00:03:42;;;;;;;19.80;10.93;;;2.40;99.90;;;1.20;100.00;102428.88;5147906;23;20009;-73
2023/01/28 00:05:43;;;;;;;17.40;9.98;;;2.30;99.90;;;1.17;100.00;102431.59;5121831;23;20008;-73
2023/01/28 00:07:44;;;;;;;18.77;10.35;;;2.30;99.90;;;1.15;100.00;102427.34;5121608;23;20005;-73
2023/01/28 00:09:45;;;;;;;18.10;10.23;;;2.30;99.90;;;1.17;100.00;102435.94;5121863;23;20004;-73
2023/01/28 00:11:46;;;;;;;20.92;10.52;;;2.20;99.90;;;1.18;100.00;102441.09;5121373;23;20457;-73
2023/01/28 00:13:51;;;;;;;14.95;10.02;;;2.20;99.90;;;1.16;100.00;102436.88;5121592;23;20007;-73
2023/01/28 00:16:00;;;;;;;17.42;10.43;;;2.20;99.90;;;1.13;100.00;102433.44;5096597;23;20008;-73
2023/01/28 00:18:01;;;;;;;20.67;11.45;;;2.30;99.90;;;1.26;100.00;102440.81;5122369;23;20008;-73
2023/01/28 00:20:06;;;;;;;20.85;10.52;;;2.30;99.90;;;1.25;100.00;102440.00;5121586;23;20075;-73
2023/01/28 00:22:07;;;;;;;16.65;10.75;;;2.40;99.90;;;1.25;100.00;102439.13;5121480;23;20005;-73
2023/01/28 00:24:08;;;;;;;15.27;9.38;;;2.40;99.90;;;1.34;100.00;102450.06;5147925;23;20001;-73
2023/01/28 00:26:13;;;;;;;18.60;10.77;;;2.50;99.90;;;1.28;100.00;102444.22;5121526;23;20005;-73
2023/01/28 00:28:14;;;;;;;19.15;11.07;;;2.50;99.90;;;1.38;100.00;102449.03;5147909;23;20005;-73
2023/01/28 00:30:15;;;;;;;15.73;10.00;;;2.50;99.90;;;1.46;100.00;102453.97;5147839;23;20059;-73
2023/01/28 00:32:16;;;;;;;21.52;10.88;;;2.60;99.90;;;1.56;100.00;102448.34;5147823;23;20005;-73
2023/01/28 00:34:17;;;;;;;19.40;9.93;;;2.70;99.90;;;1.67;100.00;102455.78;5138022;23;20092;-73
2023/01/28 00:36:20;;;;;;;19.48;11.45;;;2.70;99.90;;;1.81;100.00;102452.63;5121384;23;20353;-73
2023/01/28 00:38:21;;;;;;;19.30;11.07;;;2.80;99.90;;;1.82;100.00;102452.59;5171305;23;20011;-73
2023/01/28 00:40:22;;;;;;;17.17;10.25;;;2.90;99.90;;;1.89;100.00;102443.63;5147884;23;20005;-73
2023/01/28 00:42:23;;;;;;;15.90;10.00;;;3.00;99.90;;;2.00;100.00;102451.03;5145999;23;20005;-73
2023/01/28 00:44:24;;;;;;;17.70;9.65;;;3.00;99.90;;;2.03;100.00;102459.53;5148311;23;20000;-73
2023/01/28 00:46:27;;;;;;;18.05;9.45;;;3.10;99.90;;;2.09;100.00;102450.69;5146348;23;20011;-73
2023/01/28 00:48:28;;;;;;;17.55;10.25;;;3.10;99.90;;;2.11;100.00;102454.06;5147817;23;20336;-73
2023/01/28 00:50:29;;;;;;;15.77;9.63;;;3.20;99.90;;;2.14;100.00;102448.72;5146235;23;20004;-73
2023/01/28 00:52:30;;;;;;;14.90;9.68;;;3.20;99.90;;;2.13;100.00;102447.88;5146542;23;20004;-73
2023/01/28 00:54:31;;;;;;;17.27;9.82;;;3.30;99.90;;;2.23;100.00;102444.00;5147790;23;20035;-73
2023/01/28 00:56:32;;;;;;;14.32;8.98;;;3.30;99.90;;;2.20;100.00;102449.34;5147458;23;20004;-73
2023/01/28 00:58:33;;;;;;;14.63;8.60;;;3.30;99.90;;;2.24;100.00;102443.09;5146351;23;20009;-73
2023/01/28 01:00:34;;;;;;;18.10;10.13;;;3.40;99.90;;;2.33;100.00;102448.84;5146269;23;20015;-73
2023/01/28 01:02:35;;;;;;;15.00;9.73;;;3.40;99.90;;;2.38;100.00;102457.31;5147779;23;20009;-73
2023/01/28 01:04:36;;;;;;;13.95;8.50;;;3.50;99.90;;;2.41;100.00;102449.38;5147784;23;20005;-73
2023/01/28 01:06:39;;;;;;;14.75;8.65;;;3.50;99.90;;;2.44;100.00;102452.72;5147729;23;20432;-73
2023/01/28 01:08:41;;;;;;;13.30;9.07;;;3.50;99.90;;;2.45;100.00;102436.16;5146507;23;20075;-73
2023/01/28 01:10:42;;;;;;;15.48;9.00;;;3.60;99.90;;;2.52;100.00;102447.19;5147617;23;20329;-73
2023/01/28 01:12:46;;;;;;;15.98;9.65;;;3.60;99.90;;;2.49;100.00;102448.16;5149314;23;20011;-73
2023/01/28 01:14:47;;;;;;;15.48;8.98;;;3.60;99.90;;;2.54;100.00;102448.00;5147882;23;20055;-73
2023/01/28 01:16:47;;;;;;;16.35;8.85;;;3.60;99.90;;;2.58;100.00;102455.59;5149552;23;20008;-73
2023/01/28 01:18:52;;;;;;;11.90;8.43;;;3.70;99.90;;;2.55;100.00;102439.25;5149227;23;20004;-73
2023/01/28 01:20:57;;;;;;;19.67;10.18;;;3.70;99.90;;;2.60;100.00;102442.50;5147811;23;20083;-73
2023/01/28 01:22:58;;;;;;;16.60;10.05;;;3.70;99.90;;;2.64;100.00;102454.50;5147971;23;20341;-73
2023/01/28 01:24:59;;;;;;;14.07;8.85;;;3.70;99.90;;;2.64;100.00;102444.06;5148937;23;20075;-73
2023/01/28 01:27:00;;;;;;;13.15;8.02;;;3.70;99.90;;;2.63;100.00;102444.97;5147446;23;20001;-73
2023/01/28 01:29:01;;;;;;;13.38;8.55;;;3.70;99.90;;;2.67;100.00;102449.16;5149471;23;20007;-73
2023/01/28 01:31:13;;;;;;;15.63;8.70;;;3.70;99.90;;;2.69;100.00;102449.94;5149155;23;20425;-73
2023/01/28 01:33:15;;;;;;;13.50;8.23;;;3.80;99.90;;;2.64;100.00;102441.47;5141348;23;20024;-73
2023/01/28 01:35:16;;;;;;;12.68;7.82;;;3.80;99.90;;;2.66;100.00;102437.03;5147229;23;20005;-73
2023/01/28 01:37:17;;;;;;;14.35;8.25;;;3.80;99.90;;;2.68;100.00;102446.50;5149153;23;20000;-73
2023/01/28 01:39:18;;;;;;;13.80;8.68;;;3.80;99.90;;;2.69;100.00;102447.31;5149209;23;20005;-73
2023/01/28 01:41:31;;;;;;;13.75;7.82;;;3.80;99.90;;;2.73;100.00;102448.91;5147355;23;20377;-73
2023/01/28 01:43:51;;;;;;;15.07;8.13;;;3.80;99.90;;;2.76;100.00;102453.97;5147531;23;20004;-73
2023/01/28 01:46:00;;;;;;;11.88;7.10;;;3.80;99.90;;;2.75;100.00;102449.66;5149216;23;20001;-73
2023/01/28 01:48:18;;;;;;;15.48;8.10;;;3.90;99.90;;;2.81;100.00;102456.41;5147582;23;20051;-73
2023/01/28 01:50:19;;;;;;;12.98;7.82;;;3.90;99.90;;;2.78;100.00;102453.00;5147743;23;20004;-73
2023/01/28 01:52:27;;;;;;;11.10;7.15;;;3.90;99.90;;;2.79;100.00;102451.25;5149011;23;20100;-73
2023/01/28 01:54:31;;;;;;;14.82;8.38;;;3.90;99.90;;;2.79;100.00;102443.44;5149013;23;20337;-73
2023/01/28 01:56:40;;;;;;;14.35;8.50;;;3.90;99.90;;;2.77;100.00;102445.25;5122285;23;20063;-73
2023/01/28 01:58:45;;;;;;;13.93;8.35;;;3.90;99.90;;;2.75;100.00;102447.06;5148984;23;20074;-73
2023/01/28 02:00:46;;;;;;;11.90;7.55;;;3.90;99.90;;;2.74;100.00;102442.78;5147512;23;20011;-73
2023/01/28 02:02:50;;;;;;;12.63;7.03;;;3.90;99.90;;;2.72;100.00;102442.84;5147331;23;20004;-73
2023/01/28 02:04:51;;;;;;;12.43;7.65;;;3.80;99.90;;;2.70;100.00;102443.81;5147497;23;20000;-73
2023/01/28 02:06:52;;;;;;;16.08;9.15;;;3.80;99.90;;;2.67;100.00;102449.16;5172407;23;20004;-73
2023/01/28 02:08:54;;;;;;;11.98;7.80;;;3.70;99.90;;;2.63;100.00;102434.56;5122361;23;20012;-73
2023/01/28 02:11:04;;;;;;;10.02;6.43;;;3.70;99.90;;;2.62;100.00;102444.16;5147210;23;20008;-73
2023/01/28 02:13:05;;;;;;;13.05;7.32;;;3.70;99.90;;;2.55;100.00;102436.63;5148965;23;20005;-73
2023/01/28 02:15:19;;;;;;;13.05;7.78;;;3.70;99.90;;;2.52;100.00;102435.00;5147525;23;20008;-73
2023/01/28 02:17:21;;;;;;;14.88;9.23;;;3.60;99.90;;;2.58;100.00;102439.13;5147419;23;20008;-73
2023/01/28 02:19:26;;;;;;;13.50;8.07;;;3.70;99.90;;;2.59;100.00;102446.88;5147371;23;20011;-73
2023/01/28 02:21:38;;;;;;;14.05;7.88;;;3.70;99.90;;;2.67;100.00;102449.16;5147571;23;20034;-73
2023/01/28 02:24:10;;;;;;;9.88;6.78;;;3.70;99.90;;;2.73;100.00;102449.75;5146812;23;20439;-73
2023/01/28 02:26:38;;;;;;;14.13;7.20;;;3.80;99.90;;;2.73;100.00;102459.31;5148486;23;20001;-73
2023/01/28 02:29:18;;;;;;;12.23;6.65;;;3.80;99.90;;;2.71;100.00;102448.13;5148694;23;20383;-73
2023/01/28 02:31:24;;;;;;;12.48;7.40;;;3.80;99.90;;;2.73;100.00;102452.34;5147359;23;20019;-73
2023/01/28 02:34:00;;;;;;;11.82;7.35;;;3.80;99.90;;;2.69;100.00;102455.13;5148511;23;20008;-73
2023/01/28 02:36:29;;;;;;;11.48;7.22;;;3.80;99.90;;;2.65;100.00;102461.41;5124284;23;20015;-73
2023/01/28 02:38:42;;;;;;;13.55;7.90;;;3.80;99.90;;;2.62;100.00;102456.31;5148626;23;20004;-73
2023/01/28 02:41:01;;;;;;;10.48;7.13;;;3.70;99.90;;;2.60;100.00;102445.09;5122967;23;20033;-73
2023/01/28 02:43:02;;;;;;;9.95;6.97;;;3.70;99.90;;;2.58;100.00;102449.53;5125111;23;20398;-73
2023/01/28 02:47:58;;;;;;;13.68;7.20;;;3.70;99.90;;;2.53;100.00;102465.38;5148336;23;20089;-73
2023/01/28 02:50:29;;;;;;;10.90;7.10;;;3.60;99.90;;;2.54;100.00;102458.41;5098245;23;20316;-73
2023/01/28 02:55:30;;;;;;;11.60;6.85;;;3.60;99.90;;;2.42;100.00;102458.91;5148581;23;20047;-73
2023/01/28 02:57:31;;;;;;;15.90;7.60;;;3.60;99.90;;;2.49;100.00;102463.78;5122242;23;20350;-73
2023/01/28 02:59:48;;;;;;;14.57;8.38;;;3.60;99.90;;;2.48;100.00;102469.88;5148361;23;20012;-73
2023/01/28 03:01:57;;;;;;;11.75;7.45;;;3.60;99.90;;;2.51;100.00;102463.75;5124140;23;20031;-73
2023/01/28 03:04:14;;;;;;;10.50;6.72;;;3.60;99.90;;;2.49;100.00;102466.38;5123623;23;20028;-73
2023/01/28 03:06:22;;;;;;;15.10;7.88;;;3.60;99.90;;;2.44;100.00;102451.88;5124678;23;20060;-73
2023/01/28 03:10:43;;;;;;;13.10;6.88;;;3.60;99.90;;;2.47;100.00;102462.16;5125823;23;20369;-73
2023/01/28 03:36:59;;;;;;;11.25;7.53;;;3.60;99.90;;;2.46;100.00;102489.09;5150800;23;20416;-73
2023/01/28 03:39:01;;;;;;;13.73;7.28;;;3.60;99.90;;;2.44;100.00;102480.50;5146737;23;20009;-73
2023/01/28 03:41:03;;;;;;;13.45;7.03;;;3.60;99.90;;;2.40;100.00;102482.38;5172831;23;20058;-73
2023/01/28 03:43:04;;;;;;;11.75;7.80;;;3.50;99.90;;;2.42;100.00;102479.72;5173361;23;20031;-73
2023/01/28 03:45:06;;;;;;;10.52;6.25;;;3.50;99.90;;;2.40;100.00;102482.38;5121765;23;20001;-73
2023/01/28 03:47:10;;;;;;;10.90;6.15;;;3.50;99.90;;;2.34;100.00;102471.34;5171471;23;20010;-73
2023/01/28 03:49:10;;;;;;;12.90;6.25;;;3.50;99.90;;;2.28;100.00;102482.00;5147256;23;20336;-73
2023/01/28 03:51:11;;;;;;;10.75;6.70;;;3.50;99.90;;;2.20;100.00;102488.38;5173145;23;20000;-73
2023/01/28 03:53:14;;;;;;;10.52;5.68;;;3.40;99.90;;;2.18;100.00;102484.16;5173224;23;20031;-73
2023/01/28 03:55:15;;;;;;;9.80;6.00;;;3.30;99.90;;;2.17;100.00;102493.72;5146750;23;20341;-73
2023/01/28 03:57:18;;;;;;;12.35;6.07;;;3.30;99.90;;;2.11;100.00;102477.47;5146261;23;20008;-73
2023/01/28 03:59:19;;;;;;;11.57;5.45;;;3.30;99.90;;;2.13;100.00;102479.13;5146689;23;20004;-73
2023/01/28 04:01:20;;;;;;;8.88;5.60;;;3.30;99.90;;;2.13;100.00;102473.91;5146024;23;20009;-73
2023/01/28 04:03:21;;;;;;;6.85;5.20;;;3.30;99.90;;;2.10;100.00;102478.38;5146674;23;20441;-73
2023/01/28 04:05:23;;;;;;;11.13;4.80;;;3.20;99.90;;;2.09;100.00;102477.53;5173495;23;20000;-73
2023/01/28 04:07:23;;;;;;;8.30;5.32;;;3.20;99.90;;;2.07;100.00;102483.69;5146425;23;20008;-73
2023/01/28 04:09:25;;;;;;;11.40;5.13;;;3.20;99.90;;;2.08;100.00;102486.25;5121532;23;20032;-73
2023/01/28 04:11:26;;;;;;;5.72;4.57;;;3.10;99.90;;;2.06;100.00;102482.84;5172840;23;20420;-73
2023/01/28 04:13:27;;;;;;;8.88;5.15;;;3.20;99.90;;;2.11;100.00;102483.53;5173181;23;20083;-73
2023/01/28 04:15:29;;;;;;;7.82;4.78;;;3.20;99.90;;;2.01;100.00;102490.00;5173157;23;20008;-73
2023/01/28 04:17:30;;;;;;;7.82;4.70;;;3.10;99.90;;;1.94;100.00;102490.31;5171377;23;20031;-72
2023/01/28 04:19:36;;;;;;;11.55;4.82;;;3.10;99.90;;;1.91;100.00;102491.25;5173044;23;20004;-73
2023/01/28 04:21:37;;;;;;;11.90;5.15;;;3.00;99.90;;;1.90;100.00;102491.31;5171224;23;20011;-72
2023/01/28 04:23:38;;;;;;;12.02;4.88;;;3.00;99.90;;;1.85;100.00;102488.03;5172890;23;20004;-73
2023/01/28 04:25:39;;;;;;;8.18;4.93;;;3.00;99.90;;;1.82;100.00;102476.00;5172675;23;20034;-73
2023/01/28 04:27:39;;;;;;;14.02;4.50;;;3.00;99.90;;;1.77;100.00;102487.47;5146360;23;20001;-73
2023/01/28 04:29:40;;;;;;;9.20;5.00;;;2.90;99.90;;;1.77;100.00;102496.13;5146411;23;20425;-72
2023/01/28 04:31:41;;;;;;;6.43;3.90;;;2.80;99.90;;;1.75;100.00;102492.75;5172933;23;20000;-73
2023/01/28 04:33:42;;;;;;;9.32;4.72;;;2.80;99.90;;;1.77;100.00;102495.28;5146148;23;20104;-74
2023/01/28 04:35:43;;;;;;;7.63;4.85;;;2.90;99.90;;;1.73;100.00;102497.16;5172981;23;20441;-75
2023/01/28 04:37:44;;;;;;;7.93;4.32;;;2.80;99.90;;;1.67;100.00;102489.59;5146386;23;20004;-75
2023/01/28 04:39:45;;;;;;;10.00;4.50;;;2.80;99.90;;;1.68;100.00;102491.25;5146386;23;20008;-75
2023/01/28 04:41:46;;;;;;;5.97;4.28;;;2.80;99.90;;;1.66;100.00;102487.88;5172711;23;20019;-73
2023/01/28 04:43:48;;;;;;;9.02;4.72;;;2.70;99.90;;;1.70;100.00;102489.47;5172992;23;20011;-72
2023/01/28 04:45:49;;;;;;;9.45;4.43;;;2.70;99.90;;;1.64;100.00;102485.31;5174593;23;20067;-73
2023/01/28 04:47:50;;;;;;;11.20;4.80;;;2.70;99.90;;;1.61;100.00;102488.03;5147962;23;20024;-73
2023/01/28 04:49:50;;;;;;;8.93;5.03;;;2.70;99.90;;;1.54;100.00;102498.72;5174677;23;20111;-73
2023/01/28 04:51:51;;;;;;;12.10;4.75;;;2.70;99.90;;;1.56;100.00;102496.91;5148009;23;20425;-73
2023/01/28 04:53:52;;;;;;;9.02;4.70;;;2.60;99.90;;;1.55;100.00;102497.84;5174685;23;20008;-73
2023/01/28 04:55:53;;;;;;;8.38;4.75;;;2.60;99.90;;;1.46;100.00;102511.16;5174248;23;20004;-73
2023/01/28 04:57:54;;;;;;;12.57;5.10;;;2.60;99.90;;;1.53;100.00;102503.06;5174481;23;20502;-72
2023/01/28 04:59:55;;;;;;;6.55;4.72;;;2.60;99.90;;;1.52;100.00;102505.75;5147802;23;20005;-73
2023/01/28 05:01:56;;;;;;;7.22;5.07;;;2.50;99.90;;;1.43;100.00;102506.06;5147449;23;20024;-73
2023/01/28 05:03:56;;;;;;;7.47;5.40;;;2.50;99.90;;;1.44;100.00;102502.53;5174476;23;20429;-73
2023/01/28 05:05:57;;;;;;;8.95;5.22;;;2.50;99.90;;;1.35;100.00;102495.94;5147936;23;20012;-73
2023/01/28 05:07:59;;;;;;;8.23;4.85;;;2.50;99.90;;;1.40;100.00;102521.78;5174412;23;20007;-73
2023/01/28 05:09:59;;;;;;;13.77;5.85;;;2.40;99.90;;;1.38;100.00;102518.38;5174501;23;20000;-73
2023/01/28 05:12:00;;;;;;;10.77;5.93;;;2.40;99.90;;;1.35;100.00;102528.88;5147643;23;20075;-73
2023/01/28 05:14:01;;;;;;;8.93;5.68;;;2.40;99.90;;;1.30;100.00;102510.84;5174445;23;20058;-72
2023/01/28 05:16:02;;;;;;;10.05;5.22;;;2.40;99.90;;;1.23;100.00;102524.94;5174410;23;20007;-73
2023/01/28 05:18:03;;;;;;;10.40;4.57;;;2.30;99.90;;;1.22;100.00;102523.28;5174381;23;20004;-73
2023/01/28 05:20:06;;;;;;;9.60;4.95;;;2.30;99.90;;;1.11;100.00;102523.63;5174387;23;20028;-73
2023/01/28 05:22:06;;;;;;;10.00;5.18;;;2.20;99.90;;;1.23;100.00;102524.94;5147657;23;20005;-74
2023/01/28 05:24:08;;;;;;;9.10;5.65;;;2.20;99.90;;;1.33;100.00;102533.28;5147641;23;20007;-75
2023/01/28 05:26:09;;;;;;;8.63;5.00;;;2.30;99.90;;;1.35;100.00;102534.91;5147371;23;20028;-75
2023/01/28 05:28:10;;;;;;;7.50;5.10;;;2.30;99.90;;;1.47;100.00;102531.91;5174308;23;20004;-75
2023/01/28 05:30:11;;;;;;;9.27;5.78;;;2.50;99.90;;;1.52;100.00;102529.16;5174099;23;20000;-75
2023/01/28 05:32:12;;;;;;;10.55;5.57;;;2.50;99.90;;;1.78;100.00;102543.81;5147530;23;20000;-75
2023/01/28 05:34:13;;;;;;;8.63;5.43;;;2.60;99.90;;;1.76;100.00;102546.47;5158471;23;20012;-75
2023/01/28 05:36:14;;;;;;;10.20;6.00;;;2.80;99.90;;;1.84;100.00;102534.03;5122776;23;20005;-75
2023/01/28 05:38:15;;;;;;;7.97;5.25;;;2.80;99.90;;;1.81;99.86;102523.72;5149075;23;20007;-73
2023/01/28 05:40:16;;;;;;;9.18;5.40;;;2.90;99.90;;;1.88;99.17;102539.97;5149041;23;20103;-73
2023/01/28 05:42:19;;;;;;;9.20;5.60;;;2.90;99.90;;;1.84;98.97;102533.16;5122417;23;20077;-73
2023/01/28 05:44:20;;;;;;;7.28;5.22;;;3.00;99.90;;;1.83;99.01;102536.66;5123121;23;20048;-73
2023/01/28 05:46:21;;;;;;;7.90;5.82;;;2.90;99.90;;;1.83;99.11;102532.31;5122661;23;20005;-74
2023/01/28 05:48:22;;;;;;;8.85;5.75;;;2.90;99.90;;;1.81;98.67;102535.88;5148998;23;20001;-75
2023/01/28 05:50:23;;;;;;;10.23;5.93;;;2.90;99.90;;;1.80;98.37;102544.59;5122708;23;20111;-75
2023/01/28 05:52:24;;;;;;;9.73;6.05;;;2.90;99.90;;;1.79;98.50;102529.91;5149026;23;20456;-75
2023/01/28 05:54:25;;;;;;;9.10;6.47;;;2.90;99.90;;;1.82;98.28;102533.25;5097722;23;20017;-75
2023/01/28 05:56:25;;;;;;;8.45;5.80;;;2.90;99.90;;;1.76;97.77;102530.00;5122245;23;20425;-73
2023/01/28 05:58:29;;;;;;;10.07;6.38;;;2.80;99.90;;;1.73;97.94;102525.78;5148959;23;20005;-73
2023/01/28 06:00:30;;;;;;;8.48;5.78;;;2.80;99.90;;;1.73;98.55;102533.56;5148946;23;20012;-73
2023/01/28 06:02:31;;;;;;;10.02;6.82;;;2.80;99.90;;;1.72;98.63;102531.88;5148786;23;20012;-73
2023/01/28 06:04:32;;;;;;;8.65;6.32;;;2.80;99.90;;;1.70;99.12;102538.91;5122563;23;20080;-73
2023/01/28 06:06:33;;;;;;;10.88;6.20;;;2.80;99.90;;;1.64;99.36;102546.91;5122628;23;20093;-73
2023/01/28 06:08:36;;;;;;;9.73;5.55;;;2.80;99.90;;;1.64;99.71;102547.75;5122418;23;20005;-73
2023/01/28 06:10:37;;;;;;;8.65;5.72;;;2.80;99.90;;;1.64;99.73;102552.94;5122631;23;20005;-73
2023/01/28 06:12:37;;;;;;;9.10;6.05;;;2.80;99.90;;;1.55;100.00;102550.66;5148835;23;20011;-73
2023/01/28 06:14:38;;;;;;;9.07;6.15;;;2.70;99.90;;;1.49;100.00;102547.47;5149038;23;20012;-75
2023/01/28 06:16:39;;;;;;;9.77;6.13;;;2.70;99.90;;;1.51;100.00;102556.03;5122593;23;20005;-73
2023/01/28 06:18:40;;;;;;;8.10;5.85;;;2.60;99.90;;;1.44;100.00;102546.75;5148748;23;20380;-73
2023/01/28 06:20:41;;;;;;;9.35;5.88;;;2.60;99.90;;;1.39;100.00;102552.13;5122437;23;20053;-73
2023/01/28 06:22:42;;;;;;;10.55;5.75;;;2.60;99.90;;;1.37;100.00;102551.34;5122352;23;20084;-73
2023/01/28 06:24:43;;;;;;;12.23;6.30;;;2.50;99.90;;;1.28;100.00;102550.81;5148678;23;20083;-73
2023/01/28 06:26:44;;;;;;;7.30;5.57;;;2.50;99.90;;;1.18;100.00;102557.19;5148404;23;20314;-73
2023/01/28 06:28:45;;;;;;;9.02;5.88;;;2.40;99.90;;;1.07;100.00;102549.78;5148708;23;20000;-73
2023/01/28 06:30:52;;;;;;;10.07;6.45;;;2.30;99.90;;;0.97;100.00;102544.03;5122384;23;20005;-73
2023/01/28 06:32:54;;;;;;;11.52;6.93;;;2.20;99.90;;;0.91;100.00;102559.81;5122863;23;20005;-73
2023/01/28 06:34:56;;;;;;;10.20;6.22;;;2.10;99.90;;;0.83;100.00;102567.03;5146293;23;20026;-73
2023/01/28 06:36:57;;;;;;;12.07;6.35;;;2.00;99.90;;;0.79;100.00;102575.81;5148684;23;20345;-73
2023/01/28 06:38:58;;;;;;;10.55;6.35;;;1.90;99.90;;;0.78;100.00;102578.44;5147225;23;20012;-73
2023/01/28 06:40:59;;;;;;;11.32;5.80;;;1.90;99.90;;;0.64;100.00;102570.22;5148652;23;20012;-73
2023/01/28 06:43:00;;;;;;;8.55;6.10;;;1.80;99.90;;;0.54;100.00;102580.06;5147039;23;20009;-73
2023/01/28 06:45:01;;;;;;;12.48;7.72;;;1.70;99.90;;;0.52;100.00;102587.03;5148726;23;20012;-73
2023/01/28 06:47:02;;;;;;;13.60;6.75;;;1.70;99.90;;;0.49;100.00;102589.72;5147178;23;20001;-73
2023/01/28 06:49:03;;;;;;;11.80;7.10;;;1.60;99.90;;;0.44;100.00;102586.44;5146761;23;20042;-73
2023/01/28 06:51:04;;;;;;;10.13;6.80;;;1.60;99.90;;;0.52;100.00;102592.25;5146925;23;20009;-73
2023/01/28 06:53:05;;;;;;;10.07;6.97;;;1.60;99.90;;;0.45;100.00;102585.53;5148763;23;20008;-73
2023/01/28 06:55:07;;;;;;;11.23;7.25;;;1.60;99.90;;;0.46;100.00;102587.22;5121831;23;20055;-73
2023/01/28 06:57:08;;;;;;;18.52;7.55;;;1.60;99.90;;;0.41;100.00;102586.53;5122154;23;20416;-75
2023/01/28 06:59:09;;;;;;;13.88;7.25;;;1.60;99.90;;;0.48;100.00;102593.22;5122067;23;20005;-75
2023/01/28 07:01:10;;;;;;;10.30;7.18;;;1.60;99.90;;;0.45;100.00;102591.56;5122121;23;20036;-75
2023/01/28 07:03:11;;;;;;;13.30;6.88;;;1.60;99.90;;;0.37;100.00;102596.16;5123449;23;20449;-75
2023/01/28 07:05:11;;;;;;;12.02;8.00;;;1.60;99.90;;;0.32;100.00;102592.00;5123509;23;20426;-73
2023/01/28 07:07:12;;;;;;;8.80;6.68;;;1.50;99.90;;;0.30;100.00;102596.41;5121529;23;20001;-73
2023/01/28 07:09:13;;;;;;;14.05;8.75;;;1.50;99.90;;;0.31;100.00;102595.47;5123449;23;20001;-74
2023/01/28 07:11:15;;;;;;;12.45;7.47;;;1.50;99.90;;;0.30;100.00;102599.00;5123208;23;20012;-73
2023/01/28 07:13:16;;;;;;;13.82;7.38;;;1.50;99.90;;;0.26;100.00;102599.97;5097058;23;20080;-74
2023/01/28 07:15:17;;;;;;;13.18;7.70;;;1.40;99.90;;;0.24;100.00;102601.75;5123463;23;20429;-74
2023/01/28 07:17:18;;;;;;;15.00;7.68;;;1.40;99.90;;;0.24;100.00;102591.38;5121941;23;20445;-74
2023/01/28 07:19:19;;;;;;;16.23;9.02;;;1.40;99.90;;;0.26;100.00;102597.38;5123353;23;20005;-74
2023/01/28 07:21:20;;;;;;;15.32;7.57;;;1.40;99.90;;;0.23;100.00;102584.47;5123393;23;20060;-74
2023/01/28 07:23:21;;;;;;;15.48;7.82;;;1.40;99.90;;;0.27;100.00;102588.69;5121674;23;20005;-73
2023/01/28 07:25:22;;;;;;;16.45;7.95;;;1.40;99.90;;;0.27;100.00;102596.47;5123000;23;20012;-74
2023/01/28 07:27:23;;;;;;;10.98;6.93;;;1.40;99.90;;;0.23;100.00;102594.88;5123322;23;20005;-74
2023/01/28 07:29:24;;;;;;;13.32;7.63;;;1.40;99.90;;;0.20;100.00;102592.34;5121933;23;20001;-73
2023/01/28 07:31:25;;;;;;;18.35;7.38;;;1.40;99.90;;;0.23;100.00;102602.66;5121733;23;20001;-74
2023/01/28 07:33:26;;;;;;;12.85;7.80;;;1.40;99.90;;;0.24;100.00;102594.81;5128821;23;20024;-74
2023/01/28 07:35:27;;;;;;;15.27;9.32;;;1.40;99.90;;;0.32;100.00;102604.97;5121890;23;20012;-74
2023/01/28 07:37:28;;;;;;;14.98;8.63;;;1.40;99.90;;;0.29;100.00;102602.47;5121390;23;20460;-74
2023/01/28 07:39:29;;;;;;;14.82;7.97;;;1.40;99.90;;;0.34;100.00;102603.16;5148137;23;20008;-74
2023/01/28 07:41:29;;;;;;;13.82;8.73;;;1.50;99.90;;;0.36;100.00;102597.03;5121485;23;20005;-74
2023/01/28 07:43:30;;;;;;;12.98;7.15;;;1.50;99.90;;;0.36;100.00;102599.63;5148041;23;20040;-74
2023/01/28 07:45:31;;;;;;;17.02;8.50;;;1.50;99.90;;;0.37;100.00;102605.69;5147943;23;20421;-74
2023/01/28 07:47:32;;;;;;;15.80;8.52;;;1.50;99.90;;;0.36;100.00;102598.81;5121767;23;20361;-74
2023/01/28 07:49:33;;;;;;;14.45;7.93;;;1.50;99.90;;;0.41;100.00;102602.97;5148053;23;20059;-74
2023/01/28 07:51:34;;;;;;;13.18;8.27;;;1.50;99.90;;;0.40;100.00;102597.81;5148155;23;20007;-73
2023/01/28 07:53:35;;;;;;;9.25;7.05;;;1.50;99.90;;;0.39;100.00;102606.47;5096747;23;20013;-73
2023/01/28 07:55:37;;;;;;;11.32;6.90;;;1.50;99.90;;;0.37;100.00;102616.06;5121413;23;20008;-73
2023/01/28 07:57:56;;;;;;;17.92;7.97;;;1.50;99.90;;;0.37;100.00;102623.84;5147929;23;20062;-73
2023/01/28 07:59:57;;;;;;;13.30;6.85;;;1.50;99.90;;;0.36;100.00;102624.75;5147991;23;20102;-74
2023/01/28 08:01:58;;;;;;;11.10;8.38;;;1.50;99.90;;;0.32;100.00;102624.00;5147926;23;20005;-73
2023/01/28 08:03:58;;;;;;;9.85;7.35;;;1.50;99.90;;;0.32;100.00;102621.41;5121190;23;20017;-73
2023/01/28 08:05:59;;;;;;;15.18;8.48;;;1.50;99.90;;;0.35;100.00;102628.25;5147771;23;20000;-73
2023/01/28 08:08:00;;;;;;;14.23;7.55;;;1.50;99.90;;;0.39;100.00;102632.44;5147923;23;20000;-73
2023/01/28 08:10:01;;;;;;;10.60;6.93;;;1.50;99.90;;;0.46;100.00;102623.56;5147907;23;20005;-74
2023/01/28 08:12:02;;;;;;;13.75;7.43;;;1.60;99.90;;;0.54;100.00;102621.59;5147508;23;20001;-73
2023/01/28 08:14:04;;;;;;;11.10;7.32;;;1.60;99.90;;;0.67;100.00;102622.06;5147635;23;20008;-73
2023/01/28 08:16:06;;;;;;;12.30;7.20;;;1.80;99.90;;;0.82;100.00;102614.66;5121407;23;20436;-73
2023/01/28 08:18:09;;;;;;;13.98;7.47;;;1.80;99.90;;;1.02;100.00;102614.03;5145848;23;20416;-73
2023/01/28 08:20:11;;;;;;;12.77;8.05;;;2.00;99.90;;;1.13;100.00;102616.28;5120855;23;20004;-72
2023/01/28 08:22:11;;;;;;;11.95;7.10;;;2.10;99.90;;;1.19;100.00;102616.09;5147300;23;20012;-72
2023/01/28 08:24:12;;;;;;;10.30;6.72;;;2.20;99.90;;;1.25;100.00;102616.75;5120175;23;20009;-72
2023/01/28 08:26:13;;;;;;;11.52;6.85;;;2.30;99.90;;;1.31;100.00;102618.28;5120462;23;20032;-72
2023/01/28 08:28:16;;;;;;;10.27;7.55;;;2.40;99.90;;;1.42;100.00;102623.97;5120801;23;20025;-72
2023/01/28 08:30:17;;;;;;;12.50;7.53;;;2.50;99.90;;;1.49;100.00;102625.47;5147099;23;20027;-72
2023/01/28 08:32:18;;;;;;;11.48;7.68;;;2.60;99.90;;;1.51;100.00;102623.66;5120898;23;20001;-72
2023/01/28 08:34:19;;;;;;;11.88;7.78;;;2.60;99.90;;;1.55;100.00;102631.28;5120136;23;20016;-72
2023/01/28 08:36:20;;;;;;;13.80;7.90;;;2.70;99.90;;;1.62;100.00;102634.53;5147212;23;20009;-72
2023/01/28 08:38:21;;;;;;;14.88;7.53;;;2.70;99.90;;;1.66;100.00;102644.78;5147039;23;20429;-72
2023/01/28 08:40:22;;;;;;;12.13;6.93;;;2.80;99.90;;;1.68;100.00;102629.13;5146846;23;20028;-72
2023/01/28 08:42:23;;;;;;;14.02;7.95;;;2.80;99.90;;;1.86;100.00;102641.50;5147027;23;20004;-73
2023/01/28 08:44:23;;;;;;;12.27;8.25;;;2.90;99.90;;;1.98;100.00;102635.84;5146969;23;20005;-73
2023/01/28 08:46:24;;;;;;;13.70;7.68;;;3.00;99.90;;;2.13;100.00;102644.84;5147034;23;20000;-74
2023/01/28 08:48:25;;;;;;;11.63;7.50;;;3.20;99.90;;;2.20;100.00;102639.38;5120883;23;20084;-74
2023/01/28 08:50:31;;;;;;;12.90;7.30;;;3.30;99.90;;;2.31;100.00;102656.34;5146857;23;20004;-74
2023/01/28 08:52:32;;;;;;;15.93;7.43;;;3.40;99.90;;;2.36;100.00;102651.84;5120629;23;20016;-74
2023/01/28 08:54:35;;;;;;;9.88;7.22;;;3.40;99.90;;;2.44;100.00;102655.00;5147054;23;20009;-74
2023/01/28 08:56:37;;;;;;;12.25;8.00;;;3.50;99.90;;;2.48;100.00;102654.81;5147479;23;20008;-74
2023/01/28 08:58:39;;;;;;;12.27;7.18;;;3.60;99.90;;;2.58;100.00;102653.56;5096663;23;20037;-74
2023/01/28 09:00:42;;;;;;;14.38;7.38;;;3.60;99.90;;;2.60;100.00;102648.28;5121670;23;20404;-74
2023/01/28 09:02:43;;;;;;;15.10;7.13;;;3.70;99.90;;;2.68;100.00;102660.16;5121333;23;20032;-74
2023/01/28 09:04:43;;;;;;;12.05;7.60;;;3.80;99.90;;;2.68;100.00;102661.91;5147669;23;20004;-74